Toyomasa Maru — JJ3927 — position and weather

sailwx.info

Track history (hours):
 
Tides and Currents Weather Stations Pressure Air Temp Water Temp Dewpoint Dewpoint Depression Visibility Wind Speed Wind Dir Waves Ship Positions

Toyomasa Maru

Last reported at 2015-Mar-02 21:12 UTC. Time now 2015-Mar-04 02:57 UTC.
Position N 34°07' E 134°58'.

Length 101 m; draft 6.4 m.

Type: Tanker. MMSI: 431300401.

Date/timePositionNaut miles runAvg speedWind from/ knotsBaromVisibWave heightAir tempDewpointWater temp
2015-Mar-02 21:12N 34°07' E 134°58'2112.3
2015-Mar-02 19:31N 34°28' E 135°02'9 9.2
2015-Mar-02 18:33N 34°37' E 134°59'  
2015-Feb-28 08:30N 34°38' E 135°00'8 9.0
2015-Feb-28 07:33N 34°30' E 135°04'1413.1
2015-Feb-28 06:30N 34°16' E 134°59'1111.2
2015-Feb-28 05:33N 34°08' E 135°07'1 0.1
2015-Feb-27 22:13N 34°07' E 135°07'1 1.7
2015-Feb-27 21:33N 34°08' E 135°06'0 0.2
2015-Feb-27 20:31N 34°08' E 135°06'0 0.0
2015-Feb-27 19:31N 34°08' E 135°06'0 0.1
2015-Feb-27 18:31N 34°08' E 135°06'0 0.0
2015-Feb-27 17:28N 34°08' E 135°06'0 0.0
2015-Feb-27 16:31N 34°08' E 135°06'0 0.1
2015-Feb-27 15:31N 34°08' E 135°06'0 0.0
2015-Feb-27 14:28N 34°08' E 135°06'7 7.9
2015-Feb-27 13:32N 34°13' E 134°59'1313.5
2015-Feb-27 12:33N 34°25' E 135°06'1414.3
2015-Feb-27 11:33N 34°33' E 135°20'5 4.7
2015-Feb-27 10:33N 34°33' E 135°26'1 0.1
2015-Feb-26 22:27N 34°33' E 135°24'5 5.1
2015-Feb-26 21:30N 34°32' E 135°19'2 2.1
2015-Feb-26 20:33N 34°31' E 135°17'1212.3
2015-Feb-26 19:33N 34°24' E 135°05'1212.5
2015-Feb-26 18:33N 34°12' E 134°59'1412.5
2015-Feb-26 17:26N 33°58' E 134°60'  
2015-Feb-22 09:04N 35°12' E 139°46'611.8
2015-Feb-22 08:34N 35°18' E 139°44'1010.3
2015-Feb-22 07:33N 35°28' E 139°48'9 0.9
2015-Feb-21 22:11N 35°30' E 139°59'6 9.0
2015-Feb-21 21:31N 35°28' E 139°51'1212.2
2015-Feb-21 20:33N 35°18' E 139°45'1412.7
2015-Feb-21 19:26N 35°04' E 139°45'  
Track history (hours):
 
Tides and Currents Weather Stations Pressure Air Temp Water Temp Dewpoint Dewpoint Depression Visibility Wind Speed Wind Dir Waves Ship Positions

Toyomasa Maru

Last reported at 2015-Mar-02 21:12 UTC. Time now 2015-Mar-04 02:57 UTC.
Position N 34°07' E 134°58'.

Length 101 m; draft 6.4 m.

Type: Tanker. MMSI: 431300401.

Date/timePositionNaut miles runAvg speedWind from/ knotsBaromVisibWave heightAir tempDewpointWater temp
2015-Mar-02 21:12N 34°07' E 134°58'2112.3
2015-Mar-02 19:31N 34°28' E 135°02'9 9.2
2015-Mar-02 18:33N 34°37' E 134°59'  
2015-Feb-28 08:30N 34°38' E 135°00'8 9.0
2015-Feb-28 07:33N 34°30' E 135°04'1413.1
2015-Feb-28 06:30N 34°16' E 134°59'1111.2
2015-Feb-28 05:33N 34°08' E 135°07'1 0.1
2015-Feb-27 22:13N 34°07' E 135°07'1 1.7
2015-Feb-27 21:33N 34°08' E 135°06'0 0.2
2015-Feb-27 20:31N 34°08' E 135°06'0 0.0
2015-Feb-27 19:31N 34°08' E 135°06'0 0.1
2015-Feb-27 18:31N 34°08' E 135°06'0 0.0
2015-Feb-27 17:28N 34°08' E 135°06'0 0.0
2015-Feb-27 16:31N 34°08' E 135°06'0 0.1
2015-Feb-27 15:31N 34°08' E 135°06'0 0.0
2015-Feb-27 14:28N 34°08' E 135°06'7 7.9
2015-Feb-27 13:32N 34°13' E 134°59'1313.5
2015-Feb-27 12:33N 34°25' E 135°06'1414.3
2015-Feb-27 11:33N 34°33' E 135°20'5 4.7
2015-Feb-27 10:33N 34°33' E 135°26'1 0.1
2015-Feb-26 22:27N 34°33' E 135°24'5 5.1
2015-Feb-26 21:30N 34°32' E 135°19'2 2.1
2015-Feb-26 20:33N 34°31' E 135°17'1212.3
2015-Feb-26 19:33N 34°24' E 135°05'1212.5
2015-Feb-26 18:33N 34°12' E 134°59'1412.5
2015-Feb-26 17:26N 33°58' E 134°60'  
2015-Feb-22 09:04N 35°12' E 139°46'611.8
2015-Feb-22 08:34N 35°18' E 139°44'1010.3
2015-Feb-22 07:33N 35°28' E 139°48'9 0.9
2015-Feb-21 22:11N 35°30' E 139°59'6 9.0
2015-Feb-21 21:31N 35°28' E 139°51'1212.2
2015-Feb-21 20:33N 35°18' E 139°45'1412.7
2015-Feb-21 19:26N 35°04' E 139°45'  

Dump ship's entire track history